sensor_id;sensor_type;location;lat;lon;timestamp;temperature;humidity
26703;DHT22;14316;51.074;3.704;2023-06-22T00:01:28;20.70;99.90
26703;DHT22;14316;51.074;3.704;2023-06-22T00:03:54;20.60;99.90
26703;DHT22;14316;51.074;3.704;2023-06-22T00:06:20;20.50;99.90
26703;DHT22;14316;51.074;3.704;2023-06-22T00:08:46;20.40;99.90
26703;DHT22;14316;51.074;3.704;2023-06-22T00:11:12;20.40;99.90
26703;DHT22;14316;51.074;3.704;2023-06-22T00:13:38;20.40;99.90
26703;DHT22;14316;51.074;3.704;2023-06-22T00:16:05;20.50;99.90
26703;DHT22;14316;51.074;3.704;2023-06-22T00:18:31;20.50;99.90
26703;DHT22;14316;51.074;3.704;2023-06-22T00:20:57;20.40;99.90
26703;DHT22;14316;51.074;3.704;2023-06-22T00:23:24;20.40;99.90
26703;DHT22;14316;51.074;3.704;2023-06-22T00:25:50;20.30;99.90
26703;DHT22;14316;51.074;3.704;2023-06-22T00:28:16;20.20;99.90
26703;DHT22;14316;51.074;3.704;2023-06-22T00:30:42;20.20;99.90
26703;DHT22;14316;51.074;3.704;2023-06-22T00:33:08;20.20;99.90
26703;DHT22;14316;51.074;3.704;2023-06-22T00:35:34;20.20;99.90
26703;DHT22;14316;51.074;3.704;2023-06-22T00:38:01;20.10;99.90
26703;DHT22;14316;51.074;3.704;2023-06-22T00:40:28;20.10;99.90
26703;DHT22;14316;51.074;3.704;2023-06-22T00:42:55;20.10;99.90
26703;DHT22;14316;51.074;3.704;2023-06-22T00:45:22;20.10;99.90
26703;DHT22;14316;51.074;3.704;2023-06-22T00:47:53;20.10;99.90
26703;DHT22;14316;51.074;3.704;2023-06-22T00:50:22;20.10;99.90
26703;DHT22;14316;51.074;3.704;2023-06-22T00:52:52;20.10;99.90
26703;DHT22;14316;51.074;3.704;2023-06-22T00:55:20;20.10;99.90
26703;DHT22;14316;51.074;3.704;2023-06-22T00:57:47;20.10;99.90
26703;DHT22;14316;51.074;3.704;2023-06-22T01:00:16;20.00;99.90
26703;DHT22;14316;51.074;3.704;2023-06-22T01:02:43;20.00;99.90
26703;DHT22;14316;51.074;3.704;2023-06-22T01:05:13;20.00;99.90
26703;DHT22;14316;51.074;3.704;2023-06-22T01:07:52;19.90;99.90
26703;DHT22;14316;51.074;3.704;2023-06-22T01:13:22;19.80;99.90
26703;DHT22;14316;51.074;3.704;2023-06-22T01:16:05;19.80;99.90
26703;DHT22;14316;51.074;3.704;2023-06-22T01:18:36;19.80;99.90
26703;DHT22;14316;51.074;3.704;2023-06-22T01:21:04;19.80;99.90
26703;DHT22;14316;51.074;3.704;2023-06-22T01:29:11;19.80;99.90
26703;DHT22;14316;51.074;3.704;2023-06-22T01:31:40;19.80;99.90
26703;DHT22;14316;51.074;3.704;2023-06-22T01:34:08;19.70;99.90
26703;DHT22;14316;51.074;3.704;2023-06-22T01:36:35;19.80;99.90
26703;DHT22;14316;51.074;3.704;2023-06-22T01:39:02;19.70;99.90
26703;DHT22;14316;51.074;3.704;2023-06-22T01:41:34;19.70;99.90
26703;DHT22;14316;51.074;3.704;2023-06-22T01:44:01;19.60;99.90
26703;DHT22;14316;51.074;3.704;2023-06-22T01:46:27;19.50;99.90
26703;DHT22;14316;51.074;3.704;2023-06-22T01:48:54;19.50;99.90
26703;DHT22;14316;51.074;3.704;2023-06-22T01:51:21;19.50;99.90
26703;DHT22;14316;51.074;3.704;2023-06-22T01:53:47;19.40;99.90
26703;DHT22;14316;51.074;3.704;2023-06-22T01:56:16;19.40;99.90
26703;DHT22;14316;51.074;3.704;2023-06-22T01:58:48;19.20;99.90
26703;DHT22;14316;51.074;3.704;2023-06-22T02:01:20;19.00;99.90
26703;DHT22;14316;51.074;3.704;2023-06-22T02:04:19;18.80;99.90
26703;DHT22;14316;51.074;3.704;2023-06-22T02:06:46;18.60;99.90
26703;DHT22;14316;51.074;3.704;2023-06-22T02:09:16;18.60;99.90
26703;DHT22;14316;51.074;3.704;2023-06-22T02:11:45;18.50;99.90
26703;DHT22;14316;51.074;3.704;2023-06-22T02:14:13;18.60;99.90
26703;DHT22;14316;51.074;3.704;2023-06-22T02:16:40;18.60;99.90
26703;DHT22;14316;51.074;3.704;2023-06-22T02:19:07;18.60;99.90
26703;DHT22;14316;51.074;3.704;2023-06-22T02:21:34;18.60;99.90
26703;DHT22;14316;51.074;3.704;2023-06-22T02:24:00;18.70;99.90
26703;DHT22;14316;51.074;3.704;2023-06-22T02:26:26;18.70;99.90
26703;DHT22;14316;51.074;3.704;2023-06-22T02:28:53;18.80;99.90
26703;DHT22;14316;51.074;3.704;2023-06-22T02:31:19;18.80;99.90
26703;DHT22;14316;51.074;3.704;2023-06-22T02:33:46;18.70;99.90
26703;DHT22;14316;51.074;3.704;2023-06-22T02:36:12;18.70;99.90
26703;DHT22;14316;51.074;3.704;2023-06-22T02:38:40;18.80;99.90
26703;DHT22;14316;51.074;3.704;2023-06-22T02:41:14;18.90;99.90
26703;DHT22;14316;51.074;3.704;2023-06-22T02:43:47;18.80;99.90
26703;DHT22;14316;51.074;3.704;2023-06-22T02:46:13;18.80;99.90
26703;DHT22;14316;51.074;3.704;2023-06-22T02:48:40;18.80;99.90
26703;DHT22;14316;51.074;3.704;2023-06-22T02:51:06;18.80;99.90
26703;DHT22;14316;51.074;3.704;2023-06-22T02:53:33;18.80;99.90
26703;DHT22;14316;51.074;3.704;2023-06-22T02:55:59;18.80;99.90
26703;DHT22;14316;51.074;3.704;2023-06-22T02:58:27;18.60;99.90
26703;DHT22;14316;51.074;3.704;2023-06-22T03:00:53;18.60;99.90
26703;DHT22;14316;51.074;3.704;2023-06-22T03:03:19;18.60;99.90
26703;DHT22;14316;51.074;3.704;2023-06-22T03:05:46;18.60;99.90
26703;DHT22;14316;51.074;3.704;2023-06-22T03:08:12;18.60;99.90
26703;DHT22;14316;51.074;3.704;2023-06-22T03:10:37;18.70;99.90
26703;DHT22;14316;51.074;3.704;2023-06-22T03:13:04;18.70;99.90
26703;DHT22;14316;51.074;3.704;2023-06-22T03:15:30;18.70;99.90
26703;DHT22;14316;51.074;3.704;2023-06-22T03:17:57;18.70;99.90
26703;DHT22;14316;51.074;3.704;2023-06-22T03:20:23;18.80;99.90
26703;DHT22;14316;51.074;3.704;2023-06-22T03:22:49;18.90;99.90
26703;DHT22;14316;51.074;3.704;2023-06-22T03:25:14;18.80;99.90
26703;DHT22;14316;51.074;3.704;2023-06-22T03:27:41;18.80;99.90
26703;DHT22;14316;51.074;3.704;2023-06-22T03:30:09;18.70;99.90
26703;DHT22;14316;51.074;3.704;2023-06-22T03:32:35;18.70;99.90
26703;DHT22;14316;51.074;3.704;2023-06-22T03:35:01;18.70;99.90
26703;DHT22;14316;51.074;3.704;2023-06-22T03:37:28;18.70;99.90
26703;DHT22;14316;51.074;3.704;2023-06-22T03:39:54;18.70;99.90
26703;DHT22;14316;51.074;3.704;2023-06-22T03:42:21;18.60;99.90
26703;DHT22;14316;51.074;3.704;2023-06-22T03:44:47;18.40;99.90
26703;DHT22;14316;51.074;3.704;2023-06-22T03:47:13;18.30;99.90
26703;DHT22;14316;51.074;3.704;2023-06-22T03:49:39;18.10;99.90
26703;DHT22;14316;51.074;3.704;2023-06-22T03:52:05;18.10;99.90
26703;DHT22;14316;51.074;3.704;2023-06-22T03:54:32;18.20;99.90
26703;DHT22;14316;51.074;3.704;2023-06-22T03:56:58;18.20;99.90
26703;DHT22;14316;51.074;3.704;2023-06-22T03:59:24;18.20;99.90
26703;DHT22;14316;51.074;3.704;2023-06-22T04:01:50;18.50;99.90
26703;DHT22;14316;51.074;3.704;2023-06-22T04:04:18;18.40;99.90
26703;DHT22;14316;51.074;3.704;2023-06-22T04:06:44;18.50;99.90
26703;DHT22;14316;51.074;3.704;2023-06-22T04:09:10;18.60;99.90
26703;DHT22;14316;51.074;3.704;2023-06-22T04:11:36;18.60;99.90
26703;DHT22;14316;51.074;3.704;2023-06-22T04:14:02;18.60;99.90
26703;DHT22;14316;51.074;3.704;2023-06-22T04:16:28;18.60;99.90
26703;DHT22;14316;51.074;3.704;2023-06-22T04:18:54;18.80;99.90
26703;DHT22;14316;51.074;3.704;2023-06-22T04:21:20;18.70;99.90
26703;DHT22;14316;51.074;3.704;2023-06-22T04:23:46;18.80;99.90
26703;DHT22;14316;51.074;3.704;2023-06-22T04:26:13;18.80;99.90
26703;DHT22;14316;51.074;3.704;2023-06-22T04:28:40;19.00;99.90
26703;DHT22;14316;51.074;3.704;2023-06-22T04:31:07;19.00;99.90
26703;DHT22;14316;51.074;3.704;2023-06-22T04:33:32;19.00;99.90
26703;DHT22;14316;51.074;3.704;2023-06-22T04:35:58;19.10;99.90
26703;DHT22;14316;51.074;3.704;2023-06-22T04:38:26;19.10;99.90
26703;DHT22;14316;51.074;3.704;2023-06-22T04:40:52;19.20;99.90
26703;DHT22;14316;51.074;3.704;2023-06-22T04:43:21;19.10;99.90
26703;DHT22;14316;51.074;3.704;2023-06-22T04:45:47;19.20;99.90
26703;DHT22;14316;51.074;3.704;2023-06-22T04:48:17;19.20;99.90
26703;DHT22;14316;51.074;3.704;2023-06-22T04:50:43;19.30;99.90
26703;DHT22;14316;51.074;3.704;2023-06-22T04:53:10;19.30;99.90
26703;DHT22;14316;51.074;3.704;2023-06-22T04:55:39;19.40;99.90
26703;DHT22;14316;51.074;3.704;2023-06-22T04:58:07;19.40;99.90
26703;DHT22;14316;51.074;3.704;2023-06-22T05:00:33;19.50;99.90
26703;DHT22;14316;51.074;3.704;2023-06-22T05:03:01;19.70;99.90
26703;DHT22;14316;51.074;3.704;2023-06-22T05:05:29;19.80;99.90
26703;DHT22;14316;51.074;3.704;2023-06-22T05:07:56;19.90;99.90
26703;DHT22;14316;51.074;3.704;2023-06-22T05:10:26;20.00;99.90
26703;DHT22;14316;51.074;3.704;2023-06-22T05:12:52;20.20;99.90
26703;DHT22;14316;51.074;3.704;2023-06-22T05:15:18;20.30;99.90
26703;DHT22;14316;51.074;3.704;2023-06-22T05:17:48;20.50;99.90
26703;DHT22;14316;51.074;3.704;2023-06-22T05:20:14;20.60;99.90
26703;DHT22;14316;51.074;3.704;2023-06-22T05:22:43;20.70;99.90
26703;DHT22;14316;51.074;3.704;2023-06-22T05:25:10;20.80;99.90
26703;DHT22;14316;51.074;3.704;2023-06-22T05:27:37;21.00;99.90
26703;DHT22;14316;51.074;3.704;2023-06-22T05:30:08;21.10;99.90
26703;DHT22;14316;51.074;3.704;2023-06-22T05:32:35;21.20;99.90
26703;DHT22;14316;51.074;3.704;2023-06-22T05:35:02;21.30;99.90
26703;DHT22;14316;51.074;3.704;2023-06-22T05:37:29;21.40;99.90
26703;DHT22;14316;51.074;3.704;2023-06-22T05:39:55;21.40;99.90
26703;DHT22;14316;51.074;3.704;2023-06-22T05:42:21;21.50;99.90
26703;DHT22;14316;51.074;3.704;2023-06-22T05:44:48;21.60;99.90
26703;DHT22;14316;51.074;3.704;2023-06-22T05:47:14;21.60;99.90
26703;DHT22;14316;51.074;3.704;2023-06-22T05:49:40;21.70;99.90
26703;DHT22;14316;51.074;3.704;2023-06-22T05:52:06;21.70;99.90
26703;DHT22;14316;51.074;3.704;2023-06-22T05:54:32;21.80;99.90
26703;DHT22;14316;51.074;3.704;2023-06-22T05:56:58;21.90;99.90
26703;DHT22;14316;51.074;3.704;2023-06-22T05:59:24;22.00;99.90
26703;DHT22;14316;51.074;3.704;2023-06-22T06:01:50;22.10;99.90
26703;DHT22;14316;51.074;3.704;2023-06-22T06:04:19;22.20;99.90
26703;DHT22;14316;51.074;3.704;2023-06-22T06:06:45;22.30;99.90
26703;DHT22;14316;51.074;3.704;2023-06-22T06:09:16;22.40;99.90
26703;DHT22;14316;51.074;3.704;2023-06-22T06:11:42;22.60;99.90
26703;DHT22;14316;51.074;3.704;2023-06-22T06:14:08;22.70;99.90
26703;DHT22;14316;51.074;3.704;2023-06-22T06:16:33;22.80;99.90
26703;DHT22;14316;51.074;3.704;2023-06-22T06:18:59;22.90;99.90
26703;DHT22;14316;51.074;3.704;2023-06-22T06:21:26;23.00;99.90
26703;DHT22;14316;51.074;3.704;2023-06-22T06:23:52;23.00;99.90
26703;DHT22;14316;51.074;3.704;2023-06-22T06:26:19;23.00;99.90
26703;DHT22;14316;51.074;3.704;2023-06-22T06:28:52;23.00;99.90
26703;DHT22;14316;51.074;3.704;2023-06-22T06:31:18;23.00;99.90
26703;DHT22;14316;51.074;3.704;2023-06-22T06:33:44;23.10;99.90
26703;DHT22;14316;51.074;3.704;2023-06-22T06:36:10;23.20;99.90
26703;DHT22;14316;51.074;3.704;2023-06-22T06:38:36;23.30;99.90
26703;DHT22;14316;51.074;3.704;2023-06-22T06:41:02;23.40;99.90
26703;DHT22;14316;51.074;3.704;2023-06-22T06:43:28;23.50;99.90
26703;DHT22;14316;51.074;3.704;2023-06-22T06:45:55;23.70;99.90
26703;DHT22;14316;51.074;3.704;2023-06-22T06:48:21;23.90;99.90
26703;DHT22;14316;51.074;3.704;2023-06-22T06:50:47;23.90;99.90
26703;DHT22;14316;51.074;3.704;2023-06-22T06:53:13;24.00;99.90
26703;DHT22;14316;51.074;3.704;2023-06-22T06:55:39;24.10;99.90
26703;DHT22;14316;51.074;3.704;2023-06-22T06:58:05;24.20;99.90
26703;DHT22;14316;51.074;3.704;2023-06-22T07:00:35;24.30;99.90
26703;DHT22;14316;51.074;3.704;2023-06-22T07:03:01;24.50;99.90
26703;DHT22;14316;51.074;3.704;2023-06-22T07:05:27;24.60;99.90
26703;DHT22;14316;51.074;3.704;2023-06-22T07:07:53;24.70;99.90
26703;DHT22;14316;51.074;3.704;2023-06-22T07:10:20;24.70;99.90
26703;DHT22;14316;51.074;3.704;2023-06-22T07:12:46;25.10;99.90
26703;DHT22;14316;51.074;3.704;2023-06-22T07:15:13;25.10;99.90
26703;DHT22;14316;51.074;3.704;2023-06-22T07:17:39;25.10;99.90
26703;DHT22;14316;51.074;3.704;2023-06-22T07:20:09;25.10;99.90
26703;DHT22;14316;51.074;3.704;2023-06-22T07:22:44;25.30;99.90
26703;DHT22;14316;51.074;3.704;2023-06-22T07:25:10;25.20;99.90
26703;DHT22;14316;51.074;3.704;2023-06-22T07:28:01;25.20;99.90
26703;DHT22;14316;51.074;3.704;2023-06-22T07:30:27;25.30;99.90
26703;DHT22;14316;51.074;3.704;2023-06-22T07:32:54;25.10;99.90
26703;DHT22;14316;51.074;3.704;2023-06-22T07:35:21;25.10;99.90
26703;DHT22;14316;51.074;3.704;2023-06-22T07:37:47;25.20;99.90
26703;DHT22;14316;51.074;3.704;2023-06-22T07:40:13;25.30;99.90
26703;DHT22;14316;51.074;3.704;2023-06-22T07:42:39;25.50;99.90
26703;DHT22;14316;51.074;3.704;2023-06-22T07:45:05;25.50;99.90
26703;DHT22;14316;51.074;3.704;2023-06-22T07:47:34;25.60;99.90
26703;DHT22;14316;51.074;3.704;2023-06-22T07:50:01;25.80;99.90
26703;DHT22;14316;51.074;3.704;2023-06-22T07:52:28;25.60;99.90
26703;DHT22;14316;51.074;3.704;2023-06-22T07:54:54;25.60;99.90
26703;DHT22;14316;51.074;3.704;2023-06-22T07:57:20;25.90;99.90
26703;DHT22;14316;51.074;3.704;2023-06-22T07:59:47;26.00;99.90
26703;DHT22;14316;51.074;3.704;2023-06-22T08:02:13;26.10;99.90
26703;DHT22;14316;51.074;3.704;2023-06-22T08:04:41;26.10;99.90
26703;DHT22;14316;51.074;3.704;2023-06-22T08:07:07;26.00;99.90
26703;DHT22;14316;51.074;3.704;2023-06-22T08:09:33;26.10;99.90
26703;DHT22;14316;51.074;3.704;2023-06-22T08:12:00;26.30;99.90
26703;DHT22;14316;51.074;3.704;2023-06-22T08:14:27;26.20;99.90
26703;DHT22;14316;51.074;3.704;2023-06-22T08:16:53;26.10;99.90
26703;DHT22;14316;51.074;3.704;2023-06-22T08:19:19;26.10;99.90
26703;DHT22;14316;51.074;3.704;2023-06-22T08:21:45;25.90;99.90
26703;DHT22;14316;51.074;3.704;2023-06-22T08:24:11;25.80;99.90
26703;DHT22;14316;51.074;3.704;2023-06-22T08:26:38;25.80;99.90
26703;DHT22;14316;51.074;3.704;2023-06-22T08:29:04;25.80;99.90
26703;DHT22;14316;51.074;3.704;2023-06-22T08:31:31;25.80;99.90
26703;DHT22;14316;51.074;3.704;2023-06-22T08:33:59;25.70;99.90
26703;DHT22;14316;51.074;3.704;2023-06-22T08:36:25;25.70;99.90
26703;DHT22;14316;51.074;3.704;2023-06-22T08:38:54;25.80;99.90
26703;DHT22;14316;51.074;3.704;2023-06-22T08:41:23;25.70;99.90
26703;DHT22;14316;51.074;3.704;2023-06-22T08:43:49;25.50;99.90
26703;DHT22;14316;51.074;3.704;2023-06-22T08:46:15;25.40;99.90
26703;DHT22;14316;51.074;3.704;2023-06-22T08:48:46;25.40;99.90
26703;DHT22;14316;51.074;3.704;2023-06-22T08:51:11;25.40;99.90
26703;DHT22;14316;51.074;3.704;2023-06-22T08:53:37;25.40;99.90
26703;DHT22;14316;51.074;3.704;2023-06-22T08:56:04;25.40;99.90
26703;DHT22;14316;51.074;3.704;2023-06-22T08:58:30;25.30;99.90
26703;DHT22;14316;51.074;3.704;2023-06-22T09:00:56;25.20;99.90
26703;DHT22;14316;51.074;3.704;2023-06-22T09:03:26;25.20;99.90
26703;DHT22;14316;51.074;3.704;2023-06-22T09:05:52;25.20;99.90
26703;DHT22;14316;51.074;3.704;2023-06-22T09:08:18;25.20;99.90
26703;DHT22;14316;51.074;3.704;2023-06-22T09:10:44;25.10;99.90
26703;DHT22;14316;51.074;3.704;2023-06-22T09:13:10;25.10;99.90
26703;DHT22;14316;51.074;3.704;2023-06-22T09:15:36;25.10;99.90
26703;DHT22;14316;51.074;3.704;2023-06-22T09:18:03;25.10;99.90
26703;DHT22;14316;51.074;3.704;2023-06-22T09:20:28;25.10;99.90
26703;DHT22;14316;51.074;3.704;2023-06-22T09:22:54;25.00;99.90
26703;DHT22;14316;51.074;3.704;2023-06-22T09:25:22;24.90;99.90
26703;DHT22;14316;51.074;3.704;2023-06-22T09:27:48;24.80;99.90
26703;DHT22;14316;51.074;3.704;2023-06-22T09:30:14;24.70;99.90
26703;DHT22;14316;51.074;3.704;2023-06-22T09:32:40;24.50;99.90
26703;DHT22;14316;51.074;3.704;2023-06-22T09:35:06;24.50;99.90
26703;DHT22;14316;51.074;3.704;2023-06-22T09:37:34;24.40;99.90
26703;DHT22;14316;51.074;3.704;2023-06-22T09:40:00;24.30;99.90
26703;DHT22;14316;51.074;3.704;2023-06-22T09:42:26;24.30;99.90
26703;DHT22;14316;51.074;3.704;2023-06-22T09:44:52;24.20;99.90
26703;DHT22;14316;51.074;3.704;2023-06-22T09:47:18;24.30;99.90
26703;DHT22;14316;51.074;3.704;2023-06-22T09:49:44;24.20;99.90
26703;DHT22;14316;51.074;3.704;2023-06-22T09:52:11;24.10;99.90
26703;DHT22;14316;51.074;3.704;2023-06-22T09:54:37;24.20;99.90
26703;DHT22;14316;51.074;3.704;2023-06-22T09:57:03;24.20;99.90
26703;DHT22;14316;51.074;3.704;2023-06-22T09:59:29;24.20;99.90
26703;DHT22;14316;51.074;3.704;2023-06-22T10:01:56;24.20;99.90
26703;DHT22;14316;51.074;3.704;2023-06-22T10:04:22;24.30;99.90
26703;DHT22;14316;51.074;3.704;2023-06-22T10:06:47;24.40;99.90
26703;DHT22;14316;51.074;3.704;2023-06-22T10:09:13;24.30;99.90
26703;DHT22;14316;51.074;3.704;2023-06-22T10:11:39;24.30;99.90
26703;DHT22;14316;51.074;3.704;2023-06-22T10:14:06;24.20;99.90
26703;DHT22;14316;51.074;3.704;2023-06-22T10:16:32;24.20;99.90
26703;DHT22;14316;51.074;3.704;2023-06-22T10:18:59;24.20;99.90
26703;DHT22;14316;51.074;3.704;2023-06-22T10:21:24;24.20;99.90
26703;DHT22;14316;51.074;3.704;2023-06-22T10:23:52;24.10;99.90
26703;DHT22;14316;51.074;3.704;2023-06-22T10:26:19;24.10;99.90
26703;DHT22;14316;51.074;3.704;2023-06-22T10:28:45;24.10;99.90
26703;DHT22;14316;51.074;3.704;2023-06-22T10:31:11;24.10;99.90
26703;DHT22;14316;51.074;3.704;2023-06-22T10:33:37;24.10;99.90
26703;DHT22;14316;51.074;3.704;2023-06-22T10:36:03;24.00;99.90
26703;DHT22;14316;51.074;3.704;2023-06-22T10:38:30;24.00;99.90
26703;DHT22;14316;51.074;3.704;2023-06-22T10:40:56;23.90;99.90
26703;DHT22;14316;51.074;3.704;2023-06-22T10:43:22;23.90;99.90
26703;DHT22;14316;51.074;3.704;2023-06-22T10:45:48;23.80;99.90
26703;DHT22;14316;51.074;3.704;2023-06-22T10:48:14;23.80;99.90
26703;DHT22;14316;51.074;3.704;2023-06-22T10:50:41;23.90;99.90
26703;DHT22;14316;51.074;3.704;2023-06-22T10:53:07;23.80;99.90
26703;DHT22;14316;51.074;3.704;2023-06-22T10:55:33;23.80;99.90
26703;DHT22;14316;51.074;3.704;2023-06-22T10:57:58;23.60;99.90
26703;DHT22;14316;51.074;3.704;2023-06-22T11:00:24;23.70;99.90
26703;DHT22;14316;51.074;3.704;2023-06-22T11:02:51;23.80;99.90
26703;DHT22;14316;51.074;3.704;2023-06-22T11:05:17;23.80;99.90
26703;DHT22;14316;51.074;3.704;2023-06-22T11:07:43;23.80;99.90
26703;DHT22;14316;51.074;3.704;2023-06-22T11:10:10;23.80;99.90
26703;DHT22;14316;51.074;3.704;2023-06-22T11:12:36;23.80;99.90
26703;DHT22;14316;51.074;3.704;2023-06-22T11:15:04;23.90;99.90
26703;DHT22;14316;51.074;3.704;2023-06-22T11:17:29;24.10;99.90
26703;DHT22;14316;51.074;3.704;2023-06-22T11:19:55;24.50;99.90
26703;DHT22;14316;51.074;3.704;2023-06-22T11:22:21;24.70;99.90
26703;DHT22;14316;51.074;3.704;2023-06-22T11:24:47;24.80;99.90
26703;DHT22;14316;51.074;3.704;2023-06-22T11:27:14;24.90;99.90
26703;DHT22;14316;51.074;3.704;2023-06-22T11:29:39;24.80;99.90
26703;DHT22;14316;51.074;3.704;2023-06-22T11:32:07;24.60;99.90
26703;DHT22;14316;51.074;3.704;2023-06-22T11:34:34;24.20;99.90
26703;DHT22;14316;51.074;3.704;2023-06-22T11:37:00;23.90;99.90
26703;DHT22;14316;51.074;3.704;2023-06-22T11:39:27;23.60;99.90
26703;DHT22;14316;51.074;3.704;2023-06-22T11:41:53;23.40;99.90
26703;DHT22;14316;51.074;3.704;2023-06-22T11:44:19;23.30;99.90
26703;DHT22;14316;51.074;3.704;2023-06-22T11:46:45;23.20;99.90
26703;DHT22;14316;51.074;3.704;2023-06-22T11:49:11;23.20;99.90
26703;DHT22;14316;51.074;3.704;2023-06-22T11:51:37;23.20;99.90
26703;DHT22;14316;51.074;3.704;2023-06-22T11:54:03;23.20;99.90
26703;DHT22;14316;51.074;3.704;2023-06-22T11:56:29;23.20;99.90
26703;DHT22;14316;51.074;3.704;2023-06-22T11:58:55;23.10;99.90
26703;DHT22;14316;51.074;3.704;2023-06-22T12:01:21;23.10;99.90
26703;DHT22;14316;51.074;3.704;2023-06-22T12:03:48;23.10;99.90
26703;DHT22;14316;51.074;3.704;2023-06-22T12:06:15;23.10;99.90
26703;DHT22;14316;51.074;3.704;2023-06-22T12:08:41;23.20;99.90
26703;DHT22;14316;51.074;3.704;2023-06-22T12:11:07;23.20;99.90
26703;DHT22;14316;51.074;3.704;2023-06-22T12:13:33;23.30;99.90
26703;DHT22;14316;51.074;3.704;2023-06-22T12:16:00;23.40;99.90
26703;DHT22;14316;51.074;3.704;2023-06-22T12:18:26;23.50;99.90
26703;DHT22;14316;51.074;3.704;2023-06-22T12:20:52;23.60;99.90
26703;DHT22;14316;51.074;3.704;2023-06-22T12:23:17;23.80;99.90
26703;DHT22;14316;51.074;3.704;2023-06-22T12:25:45;23.90;99.90
26703;DHT22;14316;51.074;3.704;2023-06-22T12:28:12;24.10;99.90
26703;DHT22;14316;51.074;3.704;2023-06-22T12:30:38;24.30;99.90
26703;DHT22;14316;51.074;3.704;2023-06-22T12:33:04;24.70;99.90
26703;DHT22;14316;51.074;3.704;2023-06-22T12:35:30;24.70;99.90
26703;DHT22;14316;51.074;3.704;2023-06-22T12:37:56;24.80;99.90
26703;DHT22;14316;51.074;3.704;2023-06-22T12:40:23;24.80;99.90
26703;DHT22;14316;51.074;3.704;2023-06-22T12:42:48;24.70;99.90
26703;DHT22;14316;51.074;3.704;2023-06-22T12:45:15;24.50;99.90
26703;DHT22;14316;51.074;3.704;2023-06-22T12:47:41;24.20;99.90
26703;DHT22;14316;51.074;3.704;2023-06-22T12:50:07;23.90;99.90
26703;DHT22;14316;51.074;3.704;2023-06-22T12:52:36;23.60;99.90
26703;DHT22;14316;51.074;3.704;2023-06-22T12:55:05;23.50;99.90
26703;DHT22;14316;51.074;3.704;2023-06-22T12:57:31;23.50;99.90
26703;DHT22;14316;51.074;3.704;2023-06-22T12:59:57;23.50;99.90
26703;DHT22;14316;51.074;3.704;2023-06-22T13:02:24;23.50;99.90
26703;DHT22;14316;51.074;3.704;2023-06-22T13:04:50;23.60;99.90
26703;DHT22;14316;51.074;3.704;2023-06-22T13:07:16;24.00;99.90
26703;DHT22;14316;51.074;3.704;2023-06-22T13:09:42;24.20;99.90
26703;DHT22;14316;51.074;3.704;2023-06-22T13:12:08;24.50;99.90
26703;DHT22;14316;51.074;3.704;2023-06-22T13:14:34;24.80;99.90
26703;DHT22;14316;51.074;3.704;2023-06-22T13:17:01;25.30;99.90
26703;DHT22;14316;51.074;3.704;2023-06-22T13:19:27;25.40;99.90
26703;DHT22;14316;51.074;3.704;2023-06-22T13:21:57;25.50;99.90
26703;DHT22;14316;51.074;3.704;2023-06-22T13:24:23;25.70;99.90
26703;DHT22;14316;51.074;3.704;2023-06-22T13:26:49;26.10;99.90
26703;DHT22;14316;51.074;3.704;2023-06-22T13:29:16;26.40;99.90
26703;DHT22;14316;51.074;3.704;2023-06-22T13:31:42;26.50;99.90
26703;DHT22;14316;51.074;3.704;2023-06-22T13:34:08;26.60;99.90
26703;DHT22;14316;51.074;3.704;2023-06-22T13:36:34;26.70;99.90
26703;DHT22;14316;51.074;3.704;2023-06-22T13:39:00;26.70;99.90
26703;DHT22;14316;51.074;3.704;2023-06-22T13:41:26;26.60;99.90
26703;DHT22;14316;51.074;3.704;2023-06-22T13:43:52;26.60;99.90
26703;DHT22;14316;51.074;3.704;2023-06-22T13:46:18;26.80;99.90
26703;DHT22;14316;51.074;3.704;2023-06-22T13:48:44;27.00;99.90
26703;DHT22;14316;51.074;3.704;2023-06-22T13:51:10;27.20;99.90
26703;DHT22;14316;51.074;3.704;2023-06-22T13:53:37;27.40;99.90
26703;DHT22;14316;51.074;3.704;2023-06-22T13:56:03;27.80;99.90
26703;DHT22;14316;51.074;3.704;2023-06-22T13:58:29;28.10;99.90
26703;DHT22;14316;51.074;3.704;2023-06-22T14:00:55;28.10;99.90
26703;DHT22;14316;51.074;3.704;2023-06-22T14:03:21;28.30;99.90
26703;DHT22;14316;51.074;3.704;2023-06-22T14:05:47;28.50;99.90
26703;DHT22;14316;51.074;3.704;2023-06-22T14:08:13;28.60;99.90
26703;DHT22;14316;51.074;3.704;2023-06-22T14:10:40;28.30;99.90
26703;DHT22;14316;51.074;3.704;2023-06-22T14:13:06;28.20;99.90
26703;DHT22;14316;51.074;3.704;2023-06-22T14:15:32;27.90;99.90
26703;DHT22;14316;51.074;3.704;2023-06-22T14:17:58;27.60;99.90
26703;DHT22;14316;51.074;3.704;2023-06-22T14:20:24;27.60;99.90
26703;DHT22;14316;51.074;3.704;2023-06-22T14:22:50;27.50;99.90
26703;DHT22;14316;51.074;3.704;2023-06-22T14:25:16;27.20;99.90
26703;DHT22;14316;51.074;3.704;2023-06-22T14:27:42;26.80;99.90
26703;DHT22;14316;51.074;3.704;2023-06-22T14:30:10;26.60;99.90
26703;DHT22;14316;51.074;3.704;2023-06-22T14:32:36;26.60;99.90
26703;DHT22;14316;51.074;3.704;2023-06-22T14:35:02;26.60;99.90
26703;DHT22;14316;51.074;3.704;2023-06-22T14:37:27;27.00;99.90
26703;DHT22;14316;51.074;3.704;2023-06-22T14:39:53;27.50;99.90
26703;DHT22;14316;51.074;3.704;2023-06-22T14:42:20;28.30;99.90
26703;DHT22;14316;51.074;3.704;2023-06-22T14:44:47;28.80;99.90
26703;DHT22;14316;51.074;3.704;2023-06-22T14:47:12;29.20;99.90
26703;DHT22;14316;51.074;3.704;2023-06-22T14:49:38;29.10;99.90
26703;DHT22;14316;51.074;3.704;2023-06-22T14:52:04;29.10;99.90
26703;DHT22;14316;51.074;3.704;2023-06-22T14:54:31;28.80;99.90
26703;DHT22;14316;51.074;3.704;2023-06-22T14:56:57;28.50;99.90
26703;DHT22;14316;51.074;3.704;2023-06-22T14:59:23;28.50;99.90
26703;DHT22;14316;51.074;3.704;2023-06-22T15:01:49;28.50;99.90
26703;DHT22;14316;51.074;3.704;2023-06-22T15:04:15;28.40;99.90
26703;DHT22;14316;51.074;3.704;2023-06-22T15:06:41;28.10;99.90
26703;DHT22;14316;51.074;3.704;2023-06-22T15:09:07;27.90;99.90
26703;DHT22;14316;51.074;3.704;2023-06-22T15:11:33;27.90;99.90
26703;DHT22;14316;51.074;3.704;2023-06-22T15:13:59;28.00;99.90
26703;DHT22;14316;51.074;3.704;2023-06-22T15:16:26;28.30;99.90
26703;DHT22;14316;51.074;3.704;2023-06-22T15:18:51;28.30;99.90
26703;DHT22;14316;51.074;3.704;2023-06-22T15:21:17;28.30;99.90
26703;DHT22;14316;51.074;3.704;2023-06-22T15:23:43;28.20;99.90
26703;DHT22;14316;51.074;3.704;2023-06-22T15:26:08;28.10;99.90
26703;DHT22;14316;51.074;3.704;2023-06-22T15:28:34;28.20;99.90
26703;DHT22;14316;51.074;3.704;2023-06-22T15:31:02;28.30;99.90
26703;DHT22;14316;51.074;3.704;2023-06-22T15:33:28;28.30;99.90
26703;DHT22;14316;51.074;3.704;2023-06-22T15:35:54;28.30;99.90